Flight Track Log - Related Links

Times and Time Zones

All times are in EDT time to prevent confusion due to time zone crossing. See the UAL1206 flight status page for this flight to view local times or setup timezone preferences in your user account.

Time Position Orientation Groundspeed Altitude Reporting Facility
EDT Latitude Longitude Course Direction KTS MPH feet Rate Location/Type
Sun 08:23:07 PM 38.9667 -77.5333 North 206 237 2,400  Level Potomac TRACON
Sun 08:25:19 PM 39.1003 -77.5119 North 258 297 8,100 2,394 Climbing Washington Center
Sun 08:26:20 PM 39.1517 -77.4303 51° Northeast 265 305 10,100 1,279 Climbing Washington Center
Sun 08:27:21 PM 39.1656 -77.3289 80° East 278 320 10,700 1,488 Climbing Washington Center
Sun 08:28:21 PM 39.1339 -77.2158 110° East 271 312 13,100 2,593 Climbing Washington Center
Sun 08:29:19 PM 39.1000 -77.0947 110° East 313 360 15,800 2,390 Climbing Washington Center
Sun 08:30:19 PM 39.0639 -76.9711 111° Southeast 344 396 17,800 1,587 Climbing Washington Center
Sun 08:31:20 PM 39.0256 -76.8447 111° Southeast 363 418 19,000 595 Climbing Washington Center
Sun 08:32:20 PM 38.9472 -76.7661 142° Southeast 360 414 19,000  Level Washington Center
Sun 08:33:21 PM 38.8347 -76.7561 176° South 347 399 19,000 555 Level Washington Center
Sun 08:34:19 PM 38.7222 -76.7464 176° South 381 438 20,100 1,500 Climbing Washington Center
Sun 08:35:21 PM 38.6036 -76.7314 174° South 411 473 22,000 1,426 Climbing Washington Center
Sun 08:36:21 PM 38.4808 -76.7161 174° South 437 503 23,000 508 Climbing Washington Center
Sun 08:37:19 PM 38.3578 -76.6986 174° South 443 510 23,000 100 Level Washington Center
Sun 08:38:21 PM 38.2392 -76.6808 173° South 443 510 23,200 850 Climbing Washington Center
Sun 08:39:19 PM 38.1142 -76.6658 175° South 443 510 24,700 1,513 Climbing Washington Center
Sun 08:40:20 PM 37.9850 -76.6483 174° South 460 529 26,200 1,377 Climbing Washington Center
Sun 08:41:21 PM 37.8536 -76.6594 184° South 465 535 27,500 1,311 Climbing Washington Center
Sun 08:42:19 PM 37.7178 -76.6761 186° South 479 551 28,800 1,563 Climbing Washington Center
Sun 08:43:20 PM 37.5800 -76.6925 185° South 491 565 30,600 1,967 Climbing Washington Center
Sun 08:44:21 PM 37.4483 -76.7114 186° South 486 559 32,800 1,815 Climbing Washington Center
Sun 08:45:19 PM 37.3186 -76.7617 197° South 481 554 34,200 1,462 Climbing Washington Center
Sun 08:46:20 PM 37.1931 -76.8147 199° South 481 554 35,700 1,082 Climbing Washington Center
Sun 08:47:21 PM 37.0608 -76.8725 199° South 481 554 36,400 787 Climbing Washington Center
Sun 08:48:22 PM 36.9353 -76.9250 198° South 476 548 37,300 814 Climbing Washington Center
Sun 08:49:19 PM 36.8219 -76.9722 198° South 476 548 38,000 356 Climbing Washington Center
Sun 08:50:20 PM 36.6961 -77.0219 198° South 476 548 38,000  Level Washington Center
Sun 08:51:21 PM 36.5725 -77.0739 199° South 476 548 38,000  Level Washington Center
Sun 08:52:22 PM 36.4489 -77.1231 198° South 481 554 38,000  Level Washington Center
Sun 08:53:20 PM 36.3228 -77.1800 200° South 481 554 38,000  Level Washington Center
Sun 08:54:21 PM 36.1928 -77.2342 199° South 486 559 38,000  Level Washington Center
Sun 08:55:21 PM 36.0711 -77.2778 196° South 472 543 38,000  Level Washington Center
Sun 08:56:19 PM 35.9431 -77.3314 199° South 477 549 38,000  Level Washington Center
Sun 08:57:21 PM 35.8131 -77.3825 198° South 489 563 38,000  Level Washington Center
Sun 08:58:21 PM 35.6950 -77.4564 207° Southwest 483 556 38,000  Level Washington Center
Sun 08:59:21 PM 35.5850 -77.5611 218° Southwest 488 562 38,000  Level Washington Center
Sun 09:00:19 PM 35.4747 -77.6631 217° Southwest 499 574 38,000  Level Washington Center
Sun 09:01:20 PM 35.3644 -77.7672 218° Southwest 504 580 38,000  Level Washington Center
Sun 09:02:21 PM 35.2561 -77.8686 217° Southwest 504 580 38,000  Level Washington Center
Sun 09:03:19 PM 35.1475 -77.9722 218° Southwest 504 580 38,000  Level Washington Center
Sun 09:04:20 PM 35.0369 -78.0781 218° Southwest 499 574 38,000  Level Washington Center
Sun 09:05:21 PM 34.9283 -78.1786 217° Southwest 499 574 38,000  Level Washington Center
Sun 09:06:20 PM 34.8197 -78.2839 219° Southwest 499 574 38,000  Level Washington Center
Sun 09:07:21 PM 34.7256 -78.3817 220° Southwest 499 574 38,000  Level Washington Center
Sun 09:08:50 PM 34.5294 -78.5503 215° Southwest 508 585 38,000  Level Jacksonville Center
Sun 09:09:50 PM 34.4367 -78.6481 221° Southwest 508 585 38,000  Level Jacksonville Center
Sun 09:10:50 PM 34.3256 -78.7517 218° Southwest 508 585 38,000 -50 Level Jacksonville Center
Sun 09:11:50 PM 34.2092 -78.8350 211° Southwest 503 579 37,900 -50 Descending Jacksonville Center
Sun 09:12:50 PM 34.0797 -78.8961 201° Southwest 492 566 37,900  Level Jacksonville Center
Sun 09:13:50 PM 33.9544 -78.9569 202° Southwest 492 566 37,900 50 Level Jacksonville Center
Sun 09:14:50 PM 33.8250 -79.0178 201° Southwest 498 573 38,000 50 Climbing Jacksonville Center
Sun 09:15:50 PM 33.6994 -79.0806 203° Southwest 498 573 38,000  Level Jacksonville Center
Sun 09:16:50 PM 33.5739 -79.1358 200° South 491 565 38,000  Level Jacksonville Center
Sun 09:17:50 PM 33.4483 -79.1986 203° Southwest 486 559 38,000  Level Jacksonville Center
Sun 09:18:50 PM 33.3208 -79.2586 201° Southwest 486 559 38,000  Level Jacksonville Center
Sun 09:19:50 PM 33.1933 -79.3208 202° Southwest 491 565 38,000 -50 Level Jacksonville Center
Sun 09:20:50 PM 33.0656 -79.3828 202° Southwest 496 571 37,900 -50 Descending Jacksonville Center
Sun 09:21:50 PM 32.9378 -79.4422 201° Southwest 496 571 37,900 50 Level Jacksonville Center
Sun 09:22:50 PM 32.8100 -79.5064 203° Southwest 496 571 38,000 50 Climbing Jacksonville Center
Sun 09:23:50 PM 32.6700 -79.5733 202° Southwest 496 571 38,000  Level Jacksonville Center
Sun 09:24:50 PM 32.5422 -79.6347 202° Southwest 496 571 38,000  Level Jacksonville Center
Sun 09:25:50 PM 32.4122 -79.6961 202° Southwest 496 571 38,000  Level Jacksonville Center
Sun 09:26:50 PM 32.2864 -79.7519 201° Southwest 496 571 38,000 -50 Level Jacksonville Center
Sun 09:27:50 PM 32.1583 -79.8128 202° Southwest 491 565 37,900  Descending Jacksonville Center
Sun 09:28:50 PM 32.0325 -79.8733 202° Southwest 491 565 38,000  Climbing Jacksonville Center
Sun 09:29:50 PM 31.9044 -79.9339 202° Southwest 491 565 37,900  Descending Jacksonville Center
Sun 09:30:50 PM 31.7764 -79.9942 202° Southwest 491 565 38,000 50 Climbing Jacksonville Center
Sun 09:31:50 PM 31.6503 -80.0519 201° Southwest 491 565 38,000  Level Jacksonville Center
Sun 09:32:50 PM 31.5222 -80.1094 201° Southwest 491 565 38,000  Level Jacksonville Center
Sun 09:33:50 PM 31.3961 -80.1717 203° Southwest 491 565 38,000  Level Jacksonville Center
Sun 09:34:50 PM 31.2700 -80.2239 199° South 486 559 38,000 -50 Level Jacksonville Center
Sun 09:35:50 PM 31.1458 -80.2831 202° Southwest 486 559 37,900  Descending Jacksonville Center
Sun 09:36:50 PM 31.0239 -80.3422 203° Southwest 492 566 38,000 50 Climbing Jacksonville Center
Sun 09:37:50 PM 30.8936 -80.3992 201° Southwest 492 566 38,000 -50 Level Jacksonville Center
Sun 09:38:50 PM 30.7694 -80.4556 201° Southwest 492 566 37,900 -50 Descending Jacksonville Center
Sun 09:39:50 PM 30.6450 -80.5047 199° South 492 566 37,900 50 Level Jacksonville Center
Sun 09:40:50 PM 30.5136 -80.5056 180° South 469 540 38,000  Climbing Jacksonville Center
Sun 09:41:50 PM 30.3797 -80.5017 179° South 469 540 37,900 -50 Descending Jacksonville Center
Sun 09:42:50 PM 30.2503 -80.4975 178° South 474 545 37,900 50 Level Jacksonville Center
Sun 09:43:50 PM 30.1206 -80.4889 177° South 474 545 38,000  Climbing Jacksonville Center
Sun 09:44:50 PM 30.0161 -80.4842 178° South 474 545 37,900 -50 Descending Jacksonville Center
Sun 09:45:50 PM 29.8742 -80.4806 179° South 474 545 37,900 50 Level Jacksonville Center
Sun 09:46:50 PM 29.7467 -80.4767 178° South 467 537 38,000 50 Climbing Jacksonville Center
Sun 09:47:50 PM 29.6194 -80.4700 177° South 467 537 38,000  Level Jacksonville Center
Sun 09:48:50 PM 29.4897 -80.4661 179° South 462 532 38,000  Level Jacksonville Center
Sun 09:49:50 PM 29.3686 -80.4572 176° South 457 526 38,000  Level Jacksonville Center
Sun 09:51:18 PM 29.1653 -80.4519 179° South 453 521 38,000  Level Miami Center
Sun 09:52:18 PM 29.0361 -80.4456 178° South 458 527 38,000  Level Miami Center
Sun 09:53:18 PM 28.9050 -80.4389 177° South 464 534 38,000  Level Miami Center
Sun 09:54:18 PM 28.7736 -80.4322 177° South 464 534 38,000  Level Miami Center
Sun 09:55:18 PM 28.6511 -80.4094 171° South 464 534 38,000 -100 Level Miami Center
Sun 09:56:18 PM 28.5825 -80.3128 129° Southeast 420 483 37,800 -600 Descending Miami Center
Sun 09:57:18 PM 28.5211 -80.1736 117° Southeast 426 490 36,800 -900 Descending Miami Center
Sun 09:58:18 PM 28.4656 -80.0539 118° Southeast 433 498 36,000 -400 Descending Miami Center
Sun 09:59:18 PM 28.4119 -79.9297 116° Southeast 438 504 36,000  Level Miami Center
Sun 10:00:18 PM 28.3600 -79.8128 117° Southeast 438 504 36,000  Level Miami Center
Sun 10:01:18 PM 28.2569 -79.7442 150° Southeast 421 484 36,000 -100 Level Miami Center
Sun 10:02:18 PM 28.1275 -79.7525 183° South 412 474 35,800 -550 Descending Miami Center
Sun 10:03:18 PM 28.0000 -79.7564 182° South 438 504 34,900 -1,000 Descending Miami Center
Sun 10:04:18 PM 27.8600 -79.7622 182° South 449 517 33,800 -1,550 Descending Miami Center
Sun 10:05:18 PM 27.7431 -79.7639 181° South 466 536 31,800 -2,231 Descending Miami Center
Sun 10:06:19 PM 27.6156 -79.7700 182° South 466 536 29,300 -2,430 Descending Miami Center
Sun 10:07:19 PM 27.4778 -79.7736 181° South 453 521 26,900 -2,250 Descending Miami Center
Sun 10:08:19 PM 27.3567 -79.7750 181° South 448 516 24,800 -1,438 Descending Miami Center
Sun 10:09:20 PM 27.2483 -79.7583 172° South 426 490 24,000 -807 Descending Miami Center
Sun 10:10:18 PM 27.1633 -79.7328 165° South 372 428 23,200 -1,210 Descending Miami Center
Sun 10:11:19 PM 27.0669 -79.7444 186° South 345 397 21,600 -1,672 Descending Miami Center
Sun 10:12:20 PM 26.9636 -79.7933 203° Southwest 355 409 19,800 -1,866 Descending Miami Center
Sun 10:13:18 PM 26.8753 -79.8306 201° Southwest 350 403 17,900 -1,729 Descending Miami Center
Sun 10:14:18 PM 26.7972 -79.8681 203° Southwest 350 403 16,400 -1,636 Descending Miami Center
Sun 10:15:19 PM 26.7044 -79.9078 201° Southwest 339 390 14,600 -1,721 Descending Miami Center
Sun 10:16:20 PM 26.6306 -79.9406 202° Southwest 330 380 12,900 -1,833 Descending Miami Center
Sun 10:17:07 PM 26.5567 -79.9758 203° Southwest 306 352 11,300 -1,789 Descending Miami Center
Sun 10:18:14 PM 26.4725 -80.0131 202° Southwest 298 343 9,500 -1,534 Descending Miami Center
Sun 10:19:20 PM 26.3922 -80.0458 200° South 298 343 7,900 -1,317 Descending Miami Center
Sun 10:20:17 PM 26.3247 -80.0786 204° Southwest 282 325 6,800 -1,027 Descending Miami Center
Sun 10:21:11 PM 26.2594 -80.1069 201° Southwest 273 314 6,000 -397 Descending Miami Center
Sun 10:22:18 PM 26.2142 -80.1636 228° Southwest 233 268 6,000 -142 Level Miami Center
Sun 10:23:18 PM 26.2025 -80.2258 258° West 225 259 5,700 -689 Descending Miami Center
Sun 10:24:20 PM 26.1881 -80.3089 259° West 237 273 4,600 -850 Descending Miami Center
Sun 10:25:18 PM 26.1758 -80.3756 258° West 235 270 4,000 -303 Descending Miami Center
Sun 10:26:19 PM 26.1639 -80.4400 258° West 230 265 4,000 -621 Level Miami Center
Sun 10:27:14 PM 26.1133 -80.4569 197° South 195 224 2,800 -1,059 Descending Miami Center
Sun 10:28:18 PM 26.0789 -80.4189 135° Southeast 191 220 1,900 -393 Descending Miami Center
Sun 10:29:16 PM 26.0758 -80.3681 94° East 167 192 2,000 50 Climbing Miami Center
Sun 10:30:17 PM 26.0750 -80.3147 91° East 168 193 2,000  Level Miami Center

Login

Don't have an account? Register now (free) for customized features, flight alerts, and more!